sensor_id;sensor_type;location;lat;lon;timestamp;pressure;altitude;pressure_sealevel;temperature;humidity
18022;BME280;9136;48.822;7.966;2022-11-21T00:02:04;99531.34;;;5.57;100.00
18022;BME280;9136;48.822;7.966;2022-11-21T00:04:52;99522.66;;;5.57;100.00
18022;BME280;9136;48.822;7.966;2022-11-21T00:07:41;99534.66;;;5.64;100.00
18022;BME280;9136;48.822;7.966;2022-11-21T00:10:31;99524.16;;;5.67;100.00
18022;BME280;9136;48.822;7.966;2022-11-21T00:13:19;99532.09;;;5.62;100.00
18022;BME280;9136;48.822;7.966;2022-11-21T00:16:10;99536.50;;;5.60;100.00
18022;BME280;9136;48.822;7.966;2022-11-21T00:18:58;99538.41;;;5.52;100.00
18022;BME280;9136;48.822;7.966;2022-11-21T00:21:46;99538.94;;;5.66;100.00
18022;BME280;9136;48.822;7.966;2022-11-21T00:24:36;99521.63;;;5.64;100.00
18022;BME280;9136;48.822;7.966;2022-11-21T00:27:24;99517.28;;;5.64;100.00
18022;BME280;9136;48.822;7.966;2022-11-21T00:30:12;99535.78;;;5.54;100.00
18022;BME280;9136;48.822;7.966;2022-11-21T00:33:01;99552.97;;;5.61;100.00
18022;BME280;9136;48.822;7.966;2022-11-21T00:35:48;99552.06;;;5.63;100.00
18022;BME280;9136;48.822;7.966;2022-11-21T00:38:36;99548.63;;;5.61;100.00
18022;BME280;9136;48.822;7.966;2022-11-21T00:41:26;99518.56;;;5.46;100.00
18022;BME280;9136;48.822;7.966;2022-11-21T00:44:14;99533.84;;;5.62;100.00
18022;BME280;9136;48.822;7.966;2022-11-21T00:47:01;99532.78;;;5.70;100.00
18022;BME280;9136;48.822;7.966;2022-11-21T00:49:49;99500.84;;;5.62;100.00
18022;BME280;9136;48.822;7.966;2022-11-21T00:52:37;99503.50;;;5.59;100.00
18022;BME280;9136;48.822;7.966;2022-11-21T00:55:25;99502.41;;;5.68;100.00
18022;BME280;9136;48.822;7.966;2022-11-21T00:58:14;99524.88;;;5.73;100.00
18022;BME280;9136;48.822;7.966;2022-11-21T01:01:04;99501.50;;;5.70;100.00
18022;BME280;9136;48.822;7.966;2022-11-21T01:03:52;99529.97;;;5.78;100.00
18022;BME280;9136;48.822;7.966;2022-11-21T01:06:41;99520.22;;;5.86;100.00
18022;BME280;9136;48.822;7.966;2022-11-21T01:09:28;99498.00;;;5.71;100.00
18022;BME280;9136;48.822;7.966;2022-11-21T01:12:16;99509.91;;;5.82;100.00
18022;BME280;9136;48.822;7.966;2022-11-21T01:15:08;99511.00;;;5.73;100.00
18022;BME280;9136;48.822;7.966;2022-11-21T01:17:56;99502.41;;;5.68;100.00
18022;BME280;9136;48.822;7.966;2022-11-21T01:20:44;99492.16;;;5.62;100.00
18022;BME280;9136;48.822;7.966;2022-11-21T01:23:33;99514.38;;;5.77;100.00
18022;BME280;9136;48.822;7.966;2022-11-21T01:26:22;99505.78;;;5.73;100.00
18022;BME280;9136;48.822;7.966;2022-11-21T01:29:11;99530.91;;;5.75;100.00
18022;BME280;9136;48.822;7.966;2022-11-21T01:32:00;99501.88;;;5.55;100.00
18022;BME280;9136;48.822;7.966;2022-11-21T01:34:48;99505.38;;;5.54;100.00
18022;BME280;9136;48.822;7.966;2022-11-21T01:37:36;99486.38;;;5.51;100.00
18022;BME280;9136;48.822;7.966;2022-11-21T01:40:23;99497.69;;;5.48;100.00
18022;BME280;9136;48.822;7.966;2022-11-21T01:43:13;99470.97;;;5.40;100.00
18022;BME280;9136;48.822;7.966;2022-11-21T01:46:04;99507.06;;;5.55;100.00
18022;BME280;9136;48.822;7.966;2022-11-21T01:49:01;99463.31;;;5.34;100.00
18022;BME280;9136;48.822;7.966;2022-11-21T01:51:52;99473.66;;;5.37;100.00
18022;BME280;9136;48.822;7.966;2022-11-21T01:54:44;99472.88;;;5.33;100.00
18022;BME280;9136;48.822;7.966;2022-11-21T01:57:37;99471.03;;;5.37;100.00
18022;BME280;9136;48.822;7.966;2022-11-21T02:00:30;99451.31;;;5.27;100.00
18022;BME280;9136;48.822;7.966;2022-11-21T02:03:24;99460.91;;;5.25;100.00
18022;BME280;9136;48.822;7.966;2022-11-21T02:06:15;99482.47;;;5.31;100.00
18022;BME280;9136;48.822;7.966;2022-11-21T02:09:03;99490.09;;;5.39;100.00
18022;BME280;9136;48.822;7.966;2022-11-21T02:11:54;99468.31;;;5.43;100.00
18022;BME280;9136;48.822;7.966;2022-11-21T02:14:44;99467.44;;;5.42;100.00
18022;BME280;9136;48.822;7.966;2022-11-21T02:17:33;99447.09;;;5.23;100.00
18022;BME280;9136;48.822;7.966;2022-11-21T02:20:22;99459.78;;;5.36;100.00
18022;BME280;9136;48.822;7.966;2022-11-21T02:23:19;99444.38;;;5.27;100.00
18022;BME280;9136;48.822;7.966;2022-11-21T02:26:12;99421.38;;;5.09;100.00
18022;BME280;9136;48.822;7.966;2022-11-21T02:29:00;99451.31;;;5.27;100.00
18022;BME280;9136;48.822;7.966;2022-11-21T02:31:48;99436.94;;;5.12;100.00
18022;BME280;9136;48.822;7.966;2022-11-21T02:34:36;99457.53;;;5.21;100.00
18022;BME280;9136;48.822;7.966;2022-11-21T02:37:24;99437.72;;;5.15;100.00
18022;BME280;9136;48.822;7.966;2022-11-21T02:40:15;99431.69;;;5.13;100.00
18022;BME280;9136;48.822;7.966;2022-11-21T02:43:09;99439.16;;;5.27;100.00
18022;BME280;9136;48.822;7.966;2022-11-21T02:46:00;99438.22;;;5.30;100.00
18022;BME280;9136;48.822;7.966;2022-11-21T02:48:47;99422.81;;;5.22;100.00
18022;BME280;9136;48.822;7.966;2022-11-21T02:51:35;99431.22;;;5.33;100.00
18022;BME280;9136;48.822;7.966;2022-11-21T02:54:23;99437.28;;;5.34;100.00
18022;BME280;9136;48.822;7.966;2022-11-21T02:57:10;99419.13;;;5.31;100.00
18022;BME280;9136;48.822;7.966;2022-11-21T03:00:00;99429.38;;;5.37;100.00
18022;BME280;9136;48.822;7.966;2022-11-21T03:02:48;99424.72;;;5.50;100.00
18022;BME280;9136;48.822;7.966;2022-11-21T03:05:36;99428.97;;;5.54;100.00
18022;BME280;9136;48.822;7.966;2022-11-21T03:08:24;99404.59;;;5.56;100.00
18022;BME280;9136;48.822;7.966;2022-11-21T03:11:12;99429.56;;;5.65;100.00
18022;BME280;9136;48.822;7.966;2022-11-21T03:14:00;99417.47;;;5.62;100.00
18022;BME280;9136;48.822;7.966;2022-11-21T03:16:49;99399.28;;;5.59;100.00
18022;BME280;9136;48.822;7.966;2022-11-21T03:19:37;99418.28;;;5.64;100.00
18022;BME280;9136;48.822;7.966;2022-11-21T03:22:25;99419.13;;;5.65;100.00
18022;BME280;9136;48.822;7.966;2022-11-21T03:25:13;99425.91;;;5.72;100.00
18022;BME280;9136;48.822;7.966;2022-11-21T03:28:00;99403.53;;;5.63;100.00
18022;BME280;9136;48.822;7.966;2022-11-21T03:30:48;99411.50;;;5.57;100.00
18022;BME280;9136;48.822;7.966;2022-11-21T03:33:37;99440.69;;;5.71;100.00
18022;BME280;9136;48.822;7.966;2022-11-21T03:36:25;99417.41;;;5.64;100.00
18022;BME280;9136;48.822;7.966;2022-11-21T03:39:13;99424.34;;;5.65;100.00
18022;BME280;9136;48.822;7.966;2022-11-21T03:42:01;99425.19;;;5.65;100.00
18022;BME280;9136;48.822;7.966;2022-11-21T03:44:49;99397.59;;;5.58;100.00
18022;BME280;9136;48.822;7.966;2022-11-21T03:47:37;99413.44;;;5.51;100.00
18022;BME280;9136;48.822;7.966;2022-11-21T03:50:26;99412.34;;;5.58;100.00
18022;BME280;9136;48.822;7.966;2022-11-21T03:53:14;99417.66;;;5.55;100.00
18022;BME280;9136;48.822;7.966;2022-11-21T03:56:01;99433.94;;;5.63;100.00
18022;BME280;9136;48.822;7.966;2022-11-21T03:58:49;99443.34;;;5.68;100.00
18022;BME280;9136;48.822;7.966;2022-11-21T04:01:37;99415.94;;;5.54;100.00
18022;BME280;9136;48.822;7.966;2022-11-21T04:04:25;99417.56;;;5.58;100.00
18022;BME280;9136;48.822;7.966;2022-11-21T04:07:14;99436.50;;;5.64;100.00
18022;BME280;9136;48.822;7.966;2022-11-21T04:10:03;99432.19;;;5.63;100.00
18022;BME280;9136;48.822;7.966;2022-11-21T04:12:51;99421.88;;;5.59;100.00
18022;BME280;9136;48.822;7.966;2022-11-21T04:15:40;99422.69;;;5.62;100.00
18022;BME280;9136;48.822;7.966;2022-11-21T04:18:27;99417.50;;;5.61;100.00
18022;BME280;9136;48.822;7.966;2022-11-21T04:21:15;99433.09;;;5.62;100.00
18022;BME280;9136;48.822;7.966;2022-11-21T04:24:05;99419.59;;;5.46;100.00
18022;BME280;9136;48.822;7.966;2022-11-21T04:26:53;99429.00;;;5.52;100.00
18022;BME280;9136;48.822;7.966;2022-11-21T04:29:41;99415.38;;;5.42;100.00
18022;BME280;9136;48.822;7.966;2022-11-21T04:32:29;99423.91;;;5.47;100.00
18022;BME280;9136;48.822;7.966;2022-11-21T04:35:17;99424.13;;;5.38;100.00
18022;BME280;9136;48.822;7.966;2022-11-21T04:38:05;99429.78;;;5.56;100.00
18022;BME280;9136;48.822;7.966;2022-11-21T04:40:54;99398.66;;;5.50;100.00
18022;BME280;9136;48.822;7.966;2022-11-21T04:43:42;99409.97;;;5.49;100.00
18022;BME280;9136;48.822;7.966;2022-11-21T04:46:30;99412.69;;;5.45;100.00
18022;BME280;9136;48.822;7.966;2022-11-21T04:49:18;99405.00;;;5.41;100.00
18022;BME280;9136;48.822;7.966;2022-11-21T04:52:06;99418.91;;;5.38;100.00
18022;BME280;9136;48.822;7.966;2022-11-21T04:54:54;99412.47;;;5.17;100.00
18022;BME280;9136;48.822;7.966;2022-11-21T04:57:43;99427.06;;;5.25;100.00
18022;BME280;9136;48.822;7.966;2022-11-21T05:00:31;99443.72;;;5.17;100.00
18022;BME280;9136;48.822;7.966;2022-11-21T05:03:18;99422.19;;;5.11;100.00
18022;BME280;9136;48.822;7.966;2022-11-21T05:06:07;99419.88;;;4.99;100.00
18022;BME280;9136;48.822;7.966;2022-11-21T05:08:54;99432.19;;;4.91;100.00
18022;BME280;9136;48.822;7.966;2022-11-21T05:11:42;99420.09;;;4.88;100.00
18022;BME280;9136;48.822;7.966;2022-11-21T05:14:49;99417.31;;;4.97;100.00
18022;BME280;9136;48.822;7.966;2022-11-21T05:17:37;99413.66;;;5.04;100.00
18022;BME280;9136;48.822;7.966;2022-11-21T05:20:24;99442.56;;;5.29;100.00
18022;BME280;9136;48.822;7.966;2022-11-21T05:23:12;99422.00;;;5.18;100.00
18022;BME280;9136;48.822;7.966;2022-11-21T05:26:00;99416.06;;;5.13;100.00
18022;BME280;9136;48.822;7.966;2022-11-21T05:28:48;99427.16;;;5.20;100.00
18022;BME280;9136;48.822;7.966;2022-11-21T05:31:37;99424.78;;;5.12;100.00
18022;BME280;9136;48.822;7.966;2022-11-21T05:34:25;99426.59;;;5.07;100.00
18022;BME280;9136;48.822;7.966;2022-11-21T05:37:13;99423.47;;;4.93;100.00
18022;BME280;9136;48.822;7.966;2022-11-21T05:40:01;99448.41;;;5.03;100.00
18022;BME280;9136;48.822;7.966;2022-11-21T05:42:49;99436.69;;;4.82;100.00
18022;BME280;9136;48.822;7.966;2022-11-21T05:45:54;99441.75;;;4.90;100.00
18022;BME280;9136;48.822;7.966;2022-11-21T05:48:43;99442.78;;;4.83;100.00
18022;BME280;9136;48.822;7.966;2022-11-21T05:51:31;99434.13;;;4.81;100.00
18022;BME280;9136;48.822;7.966;2022-11-21T05:54:19;99462.44;;;4.96;100.00
18022;BME280;9136;48.822;7.966;2022-11-21T05:57:07;99441.19;;;4.76;100.00
18022;BME280;9136;48.822;7.966;2022-11-21T05:59:55;99437.59;;;4.81;100.00
18022;BME280;9136;48.822;7.966;2022-11-21T06:02:43;99439.50;;;4.75;100.00
18022;BME280;9136;48.822;7.966;2022-11-21T06:05:49;99428.41;;;4.67;100.00
18022;BME280;9136;48.822;7.966;2022-11-21T06:08:39;99423.25;;;4.64;100.00
18022;BME280;9136;48.822;7.966;2022-11-21T06:11:27;99442.72;;;4.86;100.00
18022;BME280;9136;48.822;7.966;2022-11-21T06:14:15;99441.03;;;4.83;100.00
18022;BME280;9136;48.822;7.966;2022-11-21T06:17:02;99449.25;;;5.04;100.00
18022;BME280;9136;48.822;7.966;2022-11-21T06:19:50;99418.53;;;4.81;100.00
18022;BME280;9136;48.822;7.966;2022-11-21T06:22:39;99411.81;;;4.71;100.00
18022;BME280;9136;48.822;7.966;2022-11-21T06:25:27;99435.88;;;4.80;100.00
18022;BME280;9136;48.822;7.966;2022-11-21T06:28:15;99429.94;;;4.75;100.00
18022;BME280;9136;48.822;7.966;2022-11-21T06:31:02;99438.66;;;4.73;100.00
18022;BME280;9136;48.822;7.966;2022-11-21T06:33:51;99422.41;;;4.62;100.00
18022;BME280;9136;48.822;7.966;2022-11-21T06:36:39;99434.50;;;4.66;100.00
18022;BME280;9136;48.822;7.966;2022-11-21T06:39:29;99451.56;;;4.77;100.00
18022;BME280;9136;48.822;7.966;2022-11-21T06:42:16;99441.13;;;4.79;100.00
18022;BME280;9136;48.822;7.966;2022-11-21T06:45:05;99424.03;;;4.67;100.00
18022;BME280;9136;48.822;7.966;2022-11-21T06:47:53;99414.75;;;4.55;100.00
18022;BME280;9136;48.822;7.966;2022-11-21T06:50:40;99423.38;;;4.57;100.00
18022;BME280;9136;48.822;7.966;2022-11-21T06:53:28;99421.63;;;4.58;100.00
18022;BME280;9136;48.822;7.966;2022-11-21T06:56:17;99417.72;;;4.79;100.00
18022;BME280;9136;48.822;7.966;2022-11-21T06:59:05;99413.31;;;4.81;100.00
18022;BME280;9136;48.822;7.966;2022-11-21T07:01:53;99441.53;;;4.99;100.00
18022;BME280;9136;48.822;7.966;2022-11-21T07:04:40;99451.66;;;5.13;100.00
18022;BME280;9136;48.822;7.966;2022-11-21T07:07:28;99455.88;;;5.17;100.00
18022;BME280;9136;48.822;7.966;2022-11-21T07:10:16;99448.75;;;5.25;100.00
18022;BME280;9136;48.822;7.966;2022-11-21T07:13:05;99453.38;;;5.14;100.00
18022;BME280;9136;48.822;7.966;2022-11-21T07:16:09;99448.06;;;5.17;100.00
18022;BME280;9136;48.822;7.966;2022-11-21T07:18:59;99440.13;;;5.23;100.00
18022;BME280;9136;48.822;7.966;2022-11-21T07:21:47;99415.03;;;5.19;100.00
18022;BME280;9136;48.822;7.966;2022-11-21T07:24:34;99421.06;;;5.23;100.00
18022;BME280;9136;48.822;7.966;2022-11-21T07:27:22;99407.31;;;5.16;100.00
18022;BME280;9136;48.822;7.966;2022-11-21T07:30:13;99420.03;;;5.28;100.00
18022;BME280;9136;48.822;7.966;2022-11-21T07:33:02;99426.72;;;5.38;100.00
18022;BME280;9136;48.822;7.966;2022-11-21T07:35:50;99436.03;;;5.50;100.00
18022;BME280;9136;48.822;7.966;2022-11-21T07:38:38;99406.56;;;5.46;100.00
18022;BME280;9136;48.822;7.966;2022-11-21T07:41:26;99413.19;;;5.60;100.00
18022;BME280;9136;48.822;7.966;2022-11-21T07:44:14;99407.72;;;5.69;100.00
18022;BME280;9136;48.822;7.966;2022-11-21T07:47:03;99414.59;;;5.73;100.00
18022;BME280;9136;48.822;7.966;2022-11-21T07:49:51;99431.03;;;5.75;100.00
18022;BME280;9136;48.822;7.966;2022-11-21T07:52:39;99427.06;;;5.60;100.00
18022;BME280;9136;48.822;7.966;2022-11-21T07:55:27;99445.03;;;5.71;100.00
18022;BME280;9136;48.822;7.966;2022-11-21T07:58:16;99413.25;;;5.57;100.00
18022;BME280;9136;48.822;7.966;2022-11-21T08:01:05;99398.03;;;5.41;100.00
18022;BME280;9136;48.822;7.966;2022-11-21T08:03:54;99413.97;;;5.63;100.00
18022;BME280;9136;48.822;7.966;2022-11-21T08:06:42;99430.13;;;5.76;100.00
18022;BME280;9136;48.822;7.966;2022-11-21T08:09:29;99382.16;;;5.83;100.00
18022;BME280;9136;48.822;7.966;2022-11-21T08:12:18;99394.00;;;5.96;100.00
18022;BME280;9136;48.822;7.966;2022-11-21T08:15:07;99381.91;;;5.94;100.00
18022;BME280;9136;48.822;7.966;2022-11-21T08:17:55;99404.72;;;6.18;100.00
18022;BME280;9136;48.822;7.966;2022-11-21T08:20:44;99389.22;;;6.12;100.00
18022;BME280;9136;48.822;7.966;2022-11-21T08:23:32;99392.53;;;6.19;100.00
18022;BME280;9136;48.822;7.966;2022-11-21T08:26:20;99409.84;;;6.51;100.00
18022;BME280;9136;48.822;7.966;2022-11-21T08:29:09;99380.41;;;6.46;100.00
18022;BME280;9136;48.822;7.966;2022-11-21T08:31:57;99388.34;;;6.43;100.00
18022;BME280;9136;48.822;7.966;2022-11-21T08:34:44;99383.28;;;6.38;100.00
18022;BME280;9136;48.822;7.966;2022-11-21T08:37:34;99361.50;;;6.39;100.00
18022;BME280;9136;48.822;7.966;2022-11-21T08:40:22;99367.69;;;6.35;100.00
18022;BME280;9136;48.822;7.966;2022-11-21T08:43:10;99358.53;;;6.22;100.00
18022;BME280;9136;48.822;7.966;2022-11-21T08:45:57;99351.47;;;6.25;100.00
18022;BME280;9136;48.822;7.966;2022-11-21T08:48:45;99354.91;;;6.27;100.00
18022;BME280;9136;48.822;7.966;2022-11-21T08:51:34;99335.28;;;6.14;100.00
18022;BME280;9136;48.822;7.966;2022-11-21T08:54:24;99362.47;;;6.35;100.00
18022;BME280;9136;48.822;7.966;2022-11-21T08:57:13;99355.38;;;6.40;100.00
18022;BME280;9136;48.822;7.966;2022-11-21T09:00:04;99353.38;;;6.50;100.00
18022;BME280;9136;48.822;7.966;2022-11-21T09:02:53;99338.56;;;6.50;100.00
18022;BME280;9136;48.822;7.966;2022-11-21T09:05:40;99342.25;;;6.43;100.00
18022;BME280;9136;48.822;7.966;2022-11-21T09:08:29;99340.28;;;6.51;100.00
18022;BME280;9136;48.822;7.966;2022-11-21T09:11:18;99335.78;;;6.56;100.00
18022;BME280;9136;48.822;7.966;2022-11-21T09:14:06;99353.44;;;6.76;100.00
18022;BME280;9136;48.822;7.966;2022-11-21T09:17:12;99323.81;;;6.77;100.00
18022;BME280;9136;48.822;7.966;2022-11-21T09:20:18;99336.91;;;7.02;100.00
18022;BME280;9136;48.822;7.966;2022-11-21T09:23:06;99334.56;;;7.21;100.00
18022;BME280;9136;48.822;7.966;2022-11-21T09:25:55;99336.75;;;7.33;100.00
18022;BME280;9136;48.822;7.966;2022-11-21T09:28:44;99322.03;;;7.31;100.00
18022;BME280;9136;48.822;7.966;2022-11-21T09:31:32;99308.31;;;7.26;100.00
18022;BME280;9136;48.822;7.966;2022-11-21T09:34:20;99317.97;;;7.49;100.00
18022;BME280;9136;48.822;7.966;2022-11-21T09:37:07;99304.94;;;7.47;100.00
18022;BME280;9136;48.822;7.966;2022-11-21T09:39:55;99313.69;;;7.71;100.00
18022;BME280;9136;48.822;7.966;2022-11-21T09:42:56;99323.22;;;7.72;100.00
18022;BME280;9136;48.822;7.966;2022-11-21T09:45:50;99305.63;;;7.77;100.00
18022;BME280;9136;48.822;7.966;2022-11-21T09:48:46;99303.31;;;7.93;100.00
18022;BME280;9136;48.822;7.966;2022-11-21T09:51:36;99318.59;;;8.27;100.00
18022;BME280;9136;48.822;7.966;2022-11-21T09:54:30;99276.25;;;8.17;100.00
18022;BME280;9136;48.822;7.966;2022-11-21T09:57:22;99295.84;;;8.52;100.00
18022;BME280;9136;48.822;7.966;2022-11-21T10:00:23;99294.16;;;8.73;100.00
18022;BME280;9136;48.822;7.966;2022-11-21T10:03:13;99283.59;;;8.75;100.00
18022;BME280;9136;48.822;7.966;2022-11-21T10:06:03;99284.84;;;8.88;100.00
18022;BME280;9136;48.822;7.966;2022-11-21T10:08:57;99245.88;;;8.80;100.00
18022;BME280;9136;48.822;7.966;2022-11-21T10:11:52;99247.75;;;8.77;100.00
18022;BME280;9136;48.822;7.966;2022-11-21T10:15:09;99261.47;;;9.04;100.00
18022;BME280;9136;48.822;7.966;2022-11-21T10:18:19;99227.16;;;8.89;100.00
18022;BME280;9136;48.822;7.966;2022-11-21T10:21:30;99260.00;;;8.97;100.00
18022;BME280;9136;48.822;7.966;2022-11-21T10:24:35;99247.59;;;9.22;100.00
18022;BME280;9136;48.822;7.966;2022-11-21T10:27:31;99233.88;;;9.56;100.00
18022;BME280;9136;48.822;7.966;2022-11-21T10:30:21;99230.25;;;9.98;100.00
18022;BME280;9136;48.822;7.966;2022-11-21T10:33:12;99212.81;;;11.56;100.00
18022;BME280;9136;48.822;7.966;2022-11-21T10:36:08;99225.84;;;12.39;97.85
18022;BME280;9136;48.822;7.966;2022-11-21T10:39:03;99228.69;;;13.56;82.45
18022;BME280;9136;48.822;7.966;2022-11-21T10:41:57;99202.66;;;13.79;71.68
18022;BME280;9136;48.822;7.966;2022-11-21T10:44:47;99202.97;;;13.74;68.93
18022;BME280;9136;48.822;7.966;2022-11-21T10:47:52;99186.53;;;13.97;67.49
18022;BME280;9136;48.822;7.966;2022-11-21T10:50:51;99166.22;;;13.42;71.93
18022;BME280;9136;48.822;7.966;2022-11-21T10:53:44;99160.53;;;13.49;71.66
18022;BME280;9136;48.822;7.966;2022-11-21T10:56:53;99155.53;;;13.30;74.54
18022;BME280;9136;48.822;7.966;2022-11-21T10:59:55;99139.38;;;11.20;93.78
18022;BME280;9136;48.822;7.966;2022-11-21T11:03:03;99130.72;;;9.76;100.00
18022;BME280;9136;48.822;7.966;2022-11-21T11:05:54;99152.25;;;9.64;100.00
18022;BME280;9136;48.822;7.966;2022-11-21T11:08:50;99124.31;;;9.44;100.00
18022;BME280;9136;48.822;7.966;2022-11-21T11:11:38;99126.59;;;9.52;100.00
18022;BME280;9136;48.822;7.966;2022-11-21T11:14:29;99120.78;;;9.45;100.00
18022;BME280;9136;48.822;7.966;2022-11-21T11:17:29;99116.47;;;9.63;100.00
18022;BME280;9136;48.822;7.966;2022-11-21T11:20:44;99118.47;;;9.58;100.00
18022;BME280;9136;48.822;7.966;2022-11-21T11:23:32;99119.81;;;9.85;100.00
18022;BME280;9136;48.822;7.966;2022-11-21T11:26:24;99125.38;;;11.68;100.00
18022;BME280;9136;48.822;7.966;2022-11-21T11:29:14;99098.75;;;14.21;73.51
18022;BME280;9136;48.822;7.966;2022-11-21T11:32:11;99088.88;;;14.77;65.46
18022;BME280;9136;48.822;7.966;2022-11-21T11:35:09;99109.41;;;15.11;60.11
18022;BME280;9136;48.822;7.966;2022-11-21T11:38:01;99078.50;;;14.61;63.63
18022;BME280;9136;48.822;7.966;2022-11-21T11:40:49;99089.00;;;13.82;63.20
18022;BME280;9136;48.822;7.966;2022-11-21T11:43:43;99091.09;;;13.48;62.99
18022;BME280;9136;48.822;7.966;2022-11-21T11:47:00;99074.50;;;11.20;83.82
18022;BME280;9136;48.822;7.966;2022-11-21T11:50:13;99079.06;;;10.49;96.05
18022;BME280;9136;48.822;7.966;2022-11-21T11:53:09;99036.84;;;10.36;100.00
18022;BME280;9136;48.822;7.966;2022-11-21T11:56:01;99047.88;;;10.60;97.64
18022;BME280;9136;48.822;7.966;2022-11-21T11:58:54;99029.88;;;11.03;90.17
18022;BME280;9136;48.822;7.966;2022-11-21T12:01:47;99016.22;;;11.75;87.82
18022;BME280;9136;48.822;7.966;2022-11-21T12:04:44;99046.03;;;12.51;79.20
18022;BME280;9136;48.822;7.966;2022-11-21T12:07:37;99023.28;;;11.90;80.51
18022;BME280;9136;48.822;7.966;2022-11-21T12:10:28;99025.16;;;11.88;87.72
18022;BME280;9136;48.822;7.966;2022-11-21T12:13:17;99018.38;;;11.53;94.41
18022;BME280;9136;48.822;7.966;2022-11-21T12:16:12;99002.91;;;11.46;88.85
18022;BME280;9136;48.822;7.966;2022-11-21T12:19:09;98996.63;;;11.65;83.23
18022;BME280;9136;48.822;7.966;2022-11-21T12:21:59;98985.28;;;11.49;97.67
18022;BME280;9136;48.822;7.966;2022-11-21T12:24:47;98963.13;;;10.89;100.00
18022;BME280;9136;48.822;7.966;2022-11-21T12:27:35;98969.25;;;10.57;100.00
18022;BME280;9136;48.822;7.966;2022-11-21T12:30:44;98955.94;;;10.44;100.00
18022;BME280;9136;48.822;7.966;2022-11-21T12:33:39;98965.97;;;10.53;100.00
18022;BME280;9136;48.822;7.966;2022-11-21T12:36:34;98965.91;;;10.38;100.00
18022;BME280;9136;48.822;7.966;2022-11-21T12:42:58;98951.25;;;10.34;100.00
18022;BME280;9136;48.822;7.966;2022-11-21T12:45:55;98938.03;;;10.18;100.00
18022;BME280;9136;48.822;7.966;2022-11-21T12:48:55;98912.50;;;10.04;100.00
18022;BME280;9136;48.822;7.966;2022-11-21T12:52:11;98916.47;;;10.46;100.00
18022;BME280;9136;48.822;7.966;2022-11-21T12:55:31;98926.69;;;10.83;100.00
18022;BME280;9136;48.822;7.966;2022-11-21T12:58:25;98913.78;;;10.63;100.00
18022;BME280;9136;48.822;7.966;2022-11-21T13:01:18;98909.31;;;10.32;100.00
18022;BME280;9136;48.822;7.966;2022-11-21T13:04:14;98906.63;;;10.16;100.00
18022;BME280;9136;48.822;7.966;2022-11-21T13:07:05;98914.75;;;9.94;100.00
18022;BME280;9136;48.822;7.966;2022-11-21T13:09:54;98880.28;;;9.50;100.00
18022;BME280;9136;48.822;7.966;2022-11-21T13:12:48;98895.09;;;9.68;100.00
18022;BME280;9136;48.822;7.966;2022-11-21T13:15:55;98883.13;;;9.63;100.00
18022;BME280;9136;48.822;7.966;2022-11-21T13:18:46;98909.44;;;9.79;100.00
18022;BME280;9136;48.822;7.966;2022-11-21T13:21:44;98873.63;;;9.60;100.00
18022;BME280;9136;48.822;7.966;2022-11-21T13:24:56;98893.31;;;9.69;100.00
18022;BME280;9136;48.822;7.966;2022-11-21T13:27:44;98891.91;;;9.62;100.00
18022;BME280;9136;48.822;7.966;2022-11-21T13:30:32;98875.81;;;9.69;100.00
18022;BME280;9136;48.822;7.966;2022-11-21T13:33:45;98872.94;;;9.74;100.00
18022;BME280;9136;48.822;7.966;2022-11-21T13:36:37;98867.31;;;9.82;100.00
18022;BME280;9136;48.822;7.966;2022-11-21T13:39:30;98868.53;;;9.74;100.00
18022;BME280;9136;48.822;7.966;2022-11-21T13:42:18;98856.34;;;9.73;100.00
18022;BME280;9136;48.822;7.966;2022-11-21T13:45:38;98836.94;;;9.78;100.00
18022;BME280;9136;48.822;7.966;2022-11-21T13:48:42;98830.06;;;9.75;100.00
18022;BME280;9136;48.822;7.966;2022-11-21T13:51:49;98848.25;;;9.95;100.00
18022;BME280;9136;48.822;7.966;2022-11-21T13:58:42;98798.59;;;9.75;100.00
18022;BME280;9136;48.822;7.966;2022-11-21T14:01:50;98779.06;;;9.81;100.00
18022;BME280;9136;48.822;7.966;2022-11-21T14:08:18;98789.16;;;9.88;100.00
18022;BME280;9136;48.822;7.966;2022-11-21T14:11:18;98790.00;;;9.89;100.00
18022;BME280;9136;48.822;7.966;2022-11-21T14:14:09;98770.28;;;9.82;100.00
18022;BME280;9136;48.822;7.966;2022-11-21T14:17:19;98749.84;;;9.71;100.00
18022;BME280;9136;48.822;7.966;2022-11-21T14:20:18;98762.13;;;9.70;100.00
18022;BME280;9136;48.822;7.966;2022-11-21T14:23:15;98733.78;;;9.44;100.00
18022;BME280;9136;48.822;7.966;2022-11-21T14:26:09;98715.81;;;9.54;100.00
18022;BME280;9136;48.822;7.966;2022-11-21T14:29:16;98713.91;;;9.57;100.00
18022;BME280;9136;48.822;7.966;2022-11-21T14:32:04;98706.22;;;9.37;100.00
18022;BME280;9136;48.822;7.966;2022-11-21T14:34:51;98704.78;;;9.14;100.00
18022;BME280;9136;48.822;7.966;2022-11-21T14:37:40;98688.47;;;9.09;100.00
18022;BME280;9136;48.822;7.966;2022-11-21T14:40:30;98668.44;;;9.08;100.00
18022;BME280;9136;48.822;7.966;2022-11-21T14:43:27;98662.72;;;9.17;100.00
18022;BME280;9136;48.822;7.966;2022-11-21T14:46:19;98667.72;;;9.22;100.00
18022;BME280;9136;48.822;7.966;2022-11-21T14:49:24;98623.53;;;8.98;100.00
18022;BME280;9136;48.822;7.966;2022-11-21T14:52:16;98616.59;;;8.97;100.00
18022;BME280;9136;48.822;7.966;2022-11-21T14:55:06;98600.59;;;8.86;100.00
18022;BME280;9136;48.822;7.966;2022-11-21T14:58:07;98609.16;;;8.72;100.00
18022;BME280;9136;48.822;7.966;2022-11-21T15:01:03;98633.47;;;8.74;100.00
18022;BME280;9136;48.822;7.966;2022-11-21T15:03:57;98618.31;;;8.46;100.00
18022;BME280;9136;48.822;7.966;2022-11-21T15:06:46;98633.31;;;8.43;100.00
18022;BME280;9136;48.822;7.966;2022-11-21T15:09:35;98604.34;;;8.11;100.00
18022;BME280;9136;48.822;7.966;2022-11-21T15:12:29;98567.44;;;7.98;100.00
18022;BME280;9136;48.822;7.966;2022-11-21T15:15:26;98582.00;;;8.04;100.00
18022;BME280;9136;48.822;7.966;2022-11-21T15:18:19;98561.28;;;7.99;100.00
18022;BME280;9136;48.822;7.966;2022-11-21T15:21:13;98555.22;;;7.99;100.00
18022;BME280;9136;48.822;7.966;2022-11-21T15:24:15;98551.81;;;7.80;100.00
18022;BME280;9136;48.822;7.966;2022-11-21T15:27:30;98531.09;;;7.58;100.00
18022;BME280;9136;48.822;7.966;2022-11-21T15:30:26;98543.59;;;7.51;100.00
18022;BME280;9136;48.822;7.966;2022-11-21T15:33:15;98537.75;;;7.27;100.00